Time;durP1;ratioP1;P1;durP2;ratioP2;P2;SDS_P1;SDS_P2;PMS_P1;PMS_P2;Temp;Humidity;BMP_temperature;BMP_pressure;BME280_temperature;BME280_humidity;BME280_pressure;Samples;Min_cycle;Max_cycle;Signal;HPM_P1;HPM_P2
2021/08/08 00:02:14;;;;;;;3.20;3.00;;;19.60;98.40;;;;;;5075953;28;20082;-75
2021/08/08 00:04:40;;;;;;;3.65;2.80;;;19.50;98.50;;;;;;5075823;28;20028;-74
2021/08/08 00:07:06;;;;;;;2.72;2.53;;;19.60;98.40;;;;;;5075711;28;20040;-74
2021/08/08 00:09:31;;;;;;;3.95;3.00;;;19.50;98.30;;;;;;5075749;28;20031;-75
2021/08/08 00:11:57;;;;;;;3.72;2.85;;;19.50;98.50;;;;;;5075749;28;20036;-76
2021/08/08 00:14:23;;;;;;;3.78;3.05;;;19.50;98.70;;;;;;5075566;28;20139;-72
2021/08/08 00:16:49;;;;;;;3.13;2.78;;;19.50;98.50;;;;;;5075832;28;20021;-74
2021/08/08 00:19:15;;;;;;;3.40;3.10;;;19.60;98.30;;;;;;5075364;28;20025;-74
2021/08/08 00:21:41;;;;;;;3.25;2.80;;;19.50;98.30;;;;;;5075910;28;20530;-75
2021/08/08 00:24:06;;;;;;;3.05;2.80;;;19.50;98.20;;;;;;5075365;28;20032;-74
2021/08/08 00:26:33;;;;;;;3.00;2.80;;;19.40;98.30;;;;;;5075213;28;20032;-75
2021/08/08 00:28:58;;;;;;;3.30;3.03;;;19.40;98.50;;;;;;5075876;28;20029;-75
2021/08/08 00:31:24;;;;;;;5.15;2.85;;;19.40;98.60;;;;;;5075234;28;20032;-75
2021/08/08 00:33:54;;;;;;;3.75;3.00;;;19.40;98.50;;;;;;5074956;28;20044;-74
2021/08/08 00:36:20;;;;;;;;;;;19.40;98.70;;;;;;5075462;28;20059;-75
2021/08/08 00:38:46;;;;;;;3.03;2.83;;;19.30;98.60;;;;;;5075345;28;19908;-80
2021/08/08 00:41:13;;;;;;;3.10;2.83;;;19.30;98.90;;;;;;5074976;28;20467;-74
2021/08/08 00:43:39;;;;;;;4.10;2.78;;;19.30;99.00;;;;;;5075591;28;20031;-74
2021/08/08 00:46:04;;;;;;;3.63;2.75;;;19.30;99.00;;;;;;5075301;28;20028;-75
2021/08/08 00:48:30;;;;;;;3.38;3.08;;;19.30;99.10;;;;;;5074540;28;20035;-75
2021/08/08 00:50:57;;;;;;;3.13;2.83;;;19.40;99.20;;;;;;5075026;28;20100;-75
2021/08/08 00:53:23;;;;;;;3.47;3.10;;;19.40;99.20;;;;;;5074859;28;20103;-75
2021/08/08 00:55:48;;;;;;;3.22;2.92;;;19.40;99.20;;;;;;5074688;28;20440;-77
2021/08/08 00:58:14;;;;;;;3.25;2.95;;;19.40;99.30;;;;;;5074903;28;20506;-75
2021/08/08 01:00:41;;;;;;;3.00;2.80;;;19.40;99.40;;;;;;5074647;28;20078;-76
2021/08/08 01:03:12;;;;;;;2.80;2.60;;;19.20;99.70;;;;;;5074887;28;20025;-74
2021/08/08 01:05:50;;;;;;;3.20;2.90;;;19.20;99.90;;;;;;5074250;28;20032;-74
2021/08/08 01:08:23;;;;;;;3.25;3.00;;;19.20;99.70;;;;;;5075080;28;20356;-74
2021/08/08 01:10:49;;;;;;;3.80;3.45;;;19.20;99.60;;;;;;5074785;28;20108;-81
2021/08/08 01:13:16;;;;;;;3.30;2.78;;;19.20;99.60;;;;;;5074414;28;20028;-74
2021/08/08 01:15:42;;;;;;;3.10;2.90;;;19.20;99.60;;;;;;5074125;28;20048;-73
2021/08/08 01:18:12;;;;;;;3.30;3.00;;;19.20;99.60;;;;;;5074377;28;20023;-73
2021/08/08 01:20:38;;;;;;;4.55;2.92;;;19.10;99.70;;;;;;5074431;28;20056;-73
2021/08/08 01:23:08;;;;;;;3.13;2.85;;;19.00;99.80;;;;;;5074277;28;20035;-74
2021/08/08 01:25:34;;;;;;;3.10;2.80;;;19.10;99.70;;;;;;5074378;28;20035;-73
2021/08/08 01:28:01;;;;;;;3.45;3.13;;;19.00;99.70;;;;;;5074579;28;20470;-74
2021/08/08 01:30:28;;;;;;;2.80;2.60;;;19.20;99.70;;;;;;5074168;28;20025;-74
2021/08/08 01:33:01;;;;;;;3.42;3.13;;;19.10;99.70;;;;;;5074178;28;20024;-73
2021/08/08 01:35:27;;;;;;;3.30;3.00;;;19.20;99.40;;;;;;5073297;28;20056;-74
2021/08/08 01:37:52;;;;;;;3.00;2.80;;;19.20;99.60;;;;;;5074007;28;20032;-75
2021/08/08 01:40:34;;;;;;;3.75;3.00;;;19.20;99.60;;;;;;5074035;28;20020;-73
2021/08/08 01:43:03;;;;;;;3.58;2.83;;;19.10;99.80;;;;;;5073771;28;20020;-73
2021/08/08 01:45:29;;;;;;;4.95;3.08;;;19.00;99.90;;;;;;5074116;28;20099;-76
2021/08/08 01:47:59;;;;;;;3.05;2.80;;;19.10;99.80;;;;;;5073712;28;20033;-75
2021/08/08 01:50:31;;;;;;;2.90;2.70;;;19.10;99.60;;;;;;5074046;28;20044;-74
2021/08/08 01:52:59;;;;;;;5.45;2.92;;;19.00;99.60;;;;;;5073898;28;20406;-74
2021/08/08 01:55:26;;;;;;;4.20;2.90;;;19.00;99.90;;;;;;5072914;28;20086;-75
2021/08/08 01:57:51;;;;;;;2.90;2.67;;;19.00;99.90;;;;;;5073986;28;20021;-75
2021/08/08 02:00:19;;;;;;;2.90;2.70;;;19.00;99.90;;;;;;5074382;28;20027;-76
2021/08/08 02:02:55;;;;;;;3.20;2.85;;;19.00;99.90;;;;;;5073989;28;20040;-74
2021/08/08 02:05:21;;;;;;;3.10;2.90;;;19.00;99.90;;;;;;5073755;28;20377;-75
2021/08/08 02:07:47;;;;;;;4.97;3.17;;;19.00;99.90;;;;;;5073730;28;20025;-75
2021/08/08 02:10:12;;;;;;;3.85;3.30;;;19.00;99.90;;;;;;5074174;28;20463;-74
2021/08/08 02:12:38;;;;;;;3.55;3.05;;;19.00;99.90;;;;;;5073931;28;20025;-77
2021/08/08 02:15:06;;;;;;;2.90;2.50;;;19.00;99.90;;;;;;5073252;28;20102;-74
2021/08/08 02:17:32;;;;;;;2.92;2.72;;;19.00;99.90;;;;;;5073649;28;20044;-74
2021/08/08 02:19:58;;;;;;;3.25;2.95;;;19.00;99.90;;;;;;5073218;28;20508;-74
2021/08/08 02:22:24;;;;;;;5.20;2.90;;;19.00;99.90;;;;;;5073611;28;20024;-74
2021/08/08 02:24:49;;;;;;;3.13;2.90;;;18.90;99.90;;;;;;5073650;28;20518;-75
2021/08/08 02:27:15;;;;;;;7.13;3.10;;;18.90;99.90;;;;;;5073789;28;20029;-73
2021/08/08 02:29:41;;;;;;;3.47;3.13;;;18.90;99.90;;;;;;5073787;28;20032;-73
2021/08/08 02:32:06;;;;;;;3.35;3.05;;;18.90;99.90;;;;;;5073891;28;20052;-73
2021/08/08 02:34:32;;;;;;;3.55;3.15;;;18.90;99.90;;;;;;5073135;28;20028;-73
2021/08/08 02:36:58;;;;;;;3.50;3.20;;;18.90;99.90;;;;;;5076265;28;20032;-75
2021/08/08 02:39:23;;;;;;;3.53;3.15;;;18.90;99.90;;;;;;5077345;28;20471;-74
2021/08/08 02:41:49;;;;;;;3.67;3.38;;;18.80;99.90;;;;;;5077277;28;20029;-74
2021/08/08 02:44:15;;;;;;;4.20;3.47;;;18.80;99.90;;;;;;5077202;28;20104;-75
2021/08/08 02:46:40;;;;;;;3.80;3.40;;;18.80;99.90;;;;;;5077366;28;20032;-75
2021/08/08 02:49:06;;;;;;;3.65;3.35;;;18.80;99.90;;;;;;5077552;28;20032;-74
2021/08/08 02:51:32;;;;;;;3.20;2.90;;;18.80;99.90;;;;;;5077206;28;20055;-75
2021/08/08 02:53:57;;;;;;;3.70;3.40;;;18.80;99.90;;;;;;5077084;28;20032;-75
2021/08/08 02:56:23;;;;;;;5.45;3.33;;;18.80;99.90;;;;;;5077675;28;20090;-80
2021/08/08 02:58:49;;;;;;;3.90;3.50;;;18.80;99.90;;;;;;5077443;28;20032;-74
2021/08/08 03:01:15;;;;;;;4.93;3.70;;;18.90;99.90;;;;;;5077064;28;20031;-74
2021/08/08 03:03:40;;;;;;;3.60;3.30;;;18.70;99.90;;;;;;5076964;28;20513;-77
2021/08/08 03:06:10;;;;;;;3.45;3.15;;;18.80;99.90;;;;;;5076939;28;20074;-74
2021/08/08 03:08:37;;;;;;;3.67;3.38;;;18.80;99.90;;;;;;5077154;28;20463;-74
2021/08/08 03:11:03;;;;;;;3.65;3.13;;;18.80;99.90;;;;;;5076402;28;20108;-73
2021/08/08 03:13:28;;;;;;;4.03;3.72;;;18.70;99.90;;;;;;5076624;28;20067;-75
2021/08/08 03:15:54;;;;;;;4.55;3.50;;;18.70;99.90;;;;;;5076388;28;20036;-75
2021/08/08 03:18:19;;;;;;;3.35;3.08;;;18.70;99.90;;;;;;5076986;28;20028;-74
2021/08/08 03:20:45;;;;;;;3.70;3.40;;;18.70;99.90;;;;;;5077024;28;20340;-75
2021/08/08 03:23:11;;;;;;;3.95;3.30;;;18.80;99.90;;;;;;5076705;28;20062;-76
2021/08/08 03:25:37;;;;;;;4.30;3.53;;;18.80;99.90;;;;;;5074949;28;20024;-75
2021/08/08 03:28:03;;;;;;;3.83;3.40;;;18.80;99.90;;;;;;5076489;28;20028;-77
2021/08/08 03:30:29;;;;;;;4.53;3.53;;;18.80;99.90;;;;;;5075782;28;20175;-75
2021/08/08 03:32:54;;;;;;;4.15;3.30;;;18.70;99.90;;;;;;5076426;28;20060;-74
2021/08/08 03:35:20;;;;;;;6.05;3.83;;;18.80;99.90;;;;;;5076053;28;20119;-78
2021/08/08 03:37:46;;;;;;;4.00;3.55;;;18.80;99.90;;;;;;5075570;28;20025;-75
2021/08/08 03:40:13;;;;;;;3.95;3.60;;;19.00;99.90;;;;;;5074796;28;20443;-75
2021/08/08 03:42:38;;;;;;;3.70;3.40;;;18.90;99.90;;;;;;5076499;28;20498;-74
2021/08/08 03:45:05;;;;;;;4.63;3.63;;;18.90;99.90;;;;;;5074664;28;20029;-74
2021/08/08 03:47:33;;;;;;;3.92;3.63;;;18.90;99.90;;;;;;5075503;28;20028;-74
2021/08/08 03:49:59;;;;;;;3.78;3.40;;;18.90;99.90;;;;;;5075899;28;20043;-75
2021/08/08 03:52:25;;;;;;;4.28;3.88;;;18.90;99.90;;;;;;5076462;28;20030;-75
2021/08/08 03:54:51;;;;;;;4.43;4.03;;;19.00;99.90;;;;;;5074830;28;20116;-75
2021/08/08 03:57:16;;;;;;;5.57;4.57;;;19.00;99.90;;;;;;5075827;28;20063;-76
2021/08/08 03:59:42;;;;;;;4.13;3.72;;;19.10;99.90;;;;;;5075780;28;20029;-76
2021/08/08 04:02:08;;;;;;;3.90;3.60;;;19.10;99.90;;;;;;5074820;28;20021;-76
2021/08/08 04:04:34;;;;;;;4.25;3.85;;;19.00;99.90;;;;;;5074702;28;20379;-75
2021/08/08 04:06:59;;;;;;;5.03;3.75;;;19.10;99.90;;;;;;5074030;28;20025;-75
2021/08/08 04:09:25;;;;;;;4.72;4.20;;;19.10;99.90;;;;;;5074465;28;20035;-73
2021/08/08 04:11:50;;;;;;;5.55;3.88;;;19.10;99.90;;;;;;5073353;28;20033;-76
2021/08/08 04:14:16;;;;;;;6.15;3.92;;;19.30;99.90;;;;;;5075335;28;20127;-75
2021/08/08 04:16:42;;;;;;;4.65;3.90;;;19.20;99.90;;;;;;5074064;28;20059;-76
2021/08/08 04:19:07;;;;;;;3.92;3.53;;;19.20;99.90;;;;;;5074526;28;20017;-75
2021/08/08 04:21:33;;;;;;;5.65;4.18;;;19.20;99.90;;;;;;5075209;28;20473;-74
2021/08/08 04:23:59;;;;;;;4.20;3.80;;;19.30;99.90;;;;;;5075880;28;20447;-75
2021/08/08 04:26:24;;;;;;;5.45;4.15;;;19.30;99.90;;;;;;5073753;28;20048;-75
2021/08/08 17:39:44;;;;;;;3.17;2.78;;;23.70;92.50;;;;;;5112140;27;20385;-74
2021/08/08 17:42:10;;;;;;;3.20;2.20;;;23.30;94.00;;;;;;5111259;28;20020;-74
2021/08/08 17:44:36;;;;;;;3.20;2.90;;;23.10;95.20;;;;;;5111518;28;20031;-74
2021/08/08 17:47:04;;;;;;;2.78;2.58;;;23.10;95.70;;;;;;5093913;28;20020;-74
2021/08/08 17:49:30;;;;;;;4.35;3.00;;;23.10;96.30;;;;;;5092006;28;20378;-74
2021/08/08 17:51:56;;;;;;;5.22;4.25;;;23.00;96.70;;;;;;5119436;28;20455;-76
2021/08/08 17:54:22;;;;;;;4.50;3.58;;;23.00;97.00;;;;;;5131900;27;20016;-77
2021/08/08 17:56:48;;;;;;;4.82;4.00;;;23.00;97.20;;;;;;5131323;27;20485;-77
2021/08/08 17:59:14;;;;;;;4.35;3.95;;;23.00;97.40;;;;;;5132294;28;20031;-78
2021/08/08 18:01:40;;;;;;;7.50;3.80;;;23.00;97.60;;;;;;5128033;28;20023;-75
2021/08/08 18:04:12;;;;;;;5.68;3.80;;;23.00;97.80;;;;;;5110460;28;20020;-74
2021/08/08 18:06:42;;;;;;;4.07;3.17;;;23.00;97.90;;;;;;5110515;28;20024;-74
2021/08/08 18:09:08;;;;;;;7.43;3.80;;;23.00;97.90;;;;;;5110924;28;20027;-75
2021/08/08 18:11:34;;;;;;;7.40;3.50;;;22.90;98.00;;;;;;5110727;28;20032;-75
2021/08/08 18:14:00;;;;;;;3.85;3.45;;;22.90;98.20;;;;;;5110639;28;20015;-75
2021/08/08 18:16:26;;;;;;;4.30;3.63;;;22.90;98.30;;;;;;5110688;28;20488;-75
2021/08/08 18:18:52;;;;;;;5.32;4.40;;;22.80;98.40;;;;;;5110258;28;20054;-75
2021/08/08 18:21:18;;;;;;;6.20;3.78;;;22.80;98.50;;;;;;5110639;28;20055;-74
2021/08/08 18:23:44;;;;;;;10.88;9.52;;;22.80;98.60;;;;;;5111004;28;20039;-77
2021/08/08 18:26:10;;;;;;;13.70;10.73;;;22.70;98.70;;;;;;5110580;28;20035;-75
2021/08/08 18:28:36;;;;;;;7.70;5.90;;;22.70;98.70;;;;;;5110739;28;20024;-77
2021/08/08 18:31:02;;;;;;;7.13;4.63;;;22.70;98.50;;;;;;5110953;28;20442;-76
2021/08/08 18:33:28;;;;;;;8.80;3.20;;;22.70;98.30;;;;;;5111000;28;20087;-76
2021/08/08 18:35:54;;;;;;;5.63;3.45;;;22.80;98.10;;;;;;5110635;28;20023;-76
2021/08/08 18:38:19;;;;;;;25.08;22.38;;;22.80;98.10;;;;;;5110374;28;20127;-75
2021/08/08 18:40:45;;;;;;;9.02;5.13;;;22.80;97.70;;;;;;5110852;28;20075;-73
2021/08/08 18:43:11;;;;;;;8.48;4.10;;;22.90;97.40;;;;;;5110535;28;20051;-75
2021/08/08 18:45:37;;;;;;;4.32;2.65;;;23.00;97.00;;;;;;5110183;28;20477;-75
2021/08/08 18:48:02;;;;;;;3.03;2.72;;;23.00;96.60;;;;;;5110273;28;20051;-75
2021/08/08 18:50:28;;;;;;;2.88;2.67;;;23.10;96.30;;;;;;5100039;28;20024;-74
2021/08/08 18:52:54;;;;;;;3.33;2.30;;;23.20;95.90;;;;;;5097053;28;20028;-75
2021/08/08 18:55:20;;;;;;;2.67;2.40;;;23.20;95.50;;;;;;5095781;28;20039;-75
2021/08/08 18:57:46;;;;;;;2.20;2.00;;;23.20;95.50;;;;;;5096172;28;20055;-75
2021/08/08 19:00:12;;;;;;;2.70;2.50;;;23.30;95.50;;;;;;5096043;28;20097;-76
2021/08/08 19:02:38;;;;;;;3.25;2.30;;;23.30;95.40;;;;;;5096620;28;20020;-75
2021/08/08 19:05:05;;;;;;;2.80;2.42;;;23.30;95.50;;;;;;5096370;28;20027;-75
2021/08/08 19:07:31;;;;;;;2.88;2.58;;;23.30;95.60;;;;;;5096741;28;20028;-75
2021/08/08 19:09:56;;;;;;;4.35;2.67;;;23.30;95.90;;;;;;5095598;28;20473;-74
2021/08/08 19:12:22;;;;;;;4.93;2.55;;;23.30;96.00;;;;;;5095927;28;20028;-75
2021/08/08 19:14:48;;;;;;;5.25;2.85;;;23.20;96.20;;;;;;5095949;28;20374;-75
2021/08/08 19:17:14;;;;;;;6.13;2.97;;;23.20;96.40;;;;;;5096533;28;20348;-74
2021/08/08 19:19:39;;;;;;;4.43;2.47;;;23.20;96.60;;;;;;5096215;28;20028;-75
2021/08/08 19:22:05;;;;;;;4.38;3.03;;;23.10;96.70;;;;;;5095838;28;20471;-75
2021/08/08 19:24:31;;;;;;;4.80;3.40;;;23.10;96.80;;;;;;5095998;28;20482;-75
2021/08/08 19:26:57;;;;;;;5.80;5.00;;;23.10;97.00;;;;;;5095720;28;20019;-76
2021/08/08 19:29:22;;;;;;;4.40;4.00;;;23.10;97.20;;;;;;5096025;28;20425;-76
2021/08/08 19:31:48;;;;;;;3.50;3.20;;;23.10;97.30;;;;;;5096102;28;20028;-75
2021/08/08 19:34:14;;;;;;;2.85;2.65;;;23.10;97.50;;;;;;5095359;28;20023;-75
2021/08/08 19:36:40;;;;;;;3.20;2.90;;;23.00;97.60;;;;;;5095461;28;20111;-74
2021/08/08 19:39:06;;;;;;;3.60;3.08;;;23.00;97.80;;;;;;5095400;28;20059;-74
2021/08/08 19:41:33;;;;;;;3.20;2.90;;;22.90;97.80;;;;;;5095430;28;20016;-75
2021/08/08 19:43:59;;;;;;;15.85;12.77;;;22.90;97.80;;;;;;5095589;28;20024;-76
2021/08/08 19:46:25;;;;;;;10.85;5.90;;;22.90;97.90;;;;;;5095456;28;20016;-75
2021/08/08 19:48:51;;;;;;;6.82;4.15;;;22.90;97.90;;;;;;5095450;28;20027;-74
2021/08/08 19:51:17;;;;;;;5.43;4.30;;;22.90;98.10;;;;;;5095955;28;20038;-75
2021/08/08 19:53:42;;;;;;;4.85;3.42;;;22.80;98.30;;;;;;5108408;28;20054;-75
2021/08/08 19:56:08;;;;;;;2.95;2.70;;;22.80;98.30;;;;;;5115602;28;20028;-75
2021/08/08 19:58:34;;;;;;;12.07;3.55;;;22.70;98.40;;;;;;5115905;28;20034;-74
2021/08/08 20:00:59;;;;;;;2.60;2.40;;;22.80;98.30;;;;;;5115286;28;20111;-74
2021/08/08 20:03:25;;;;;;;3.67;3.38;;;22.70;98.30;;;;;;5113517;28;20162;-75
2021/08/08 20:05:51;;;;;;;8.10;4.45;;;22.70;98.40;;;;;;5095461;28;20027;-76
2021/08/08 20:08:16;;;;;;;5.53;4.00;;;22.60;98.60;;;;;;5095181;28;20028;-76
2021/08/08 20:10:44;;;;;;;6.55;3.83;;;22.60;98.70;;;;;;5095500;28;20489;-76
2021/08/08 20:13:11;;;;;;;4.25;3.70;;;22.60;98.70;;;;;;5095045;28;20470;-76
2021/08/08 20:15:37;;;;;;;4.25;3.75;;;22.60;98.50;;;;;;5095458;28;20081;-76
2021/08/08 20:18:02;;;;;;;4.03;3.50;;;22.60;98.60;;;;;;5094846;28;20020;-76
2021/08/08 20:20:28;;;;;;;5.25;3.50;;;22.60;98.50;;;;;;5103619;28;20024;-77
2021/08/08 20:22:54;;;;;;;4.13;3.30;;;22.60;98.70;;;;;;5096079;28;20024;-76
2021/08/08 20:25:20;;;;;;;5.63;3.10;;;22.60;98.30;;;;;;5094856;28;20020;-76
2021/08/08 20:27:46;;;;;;;6.57;3.50;;;22.60;98.40;;;;;;5094881;28;20518;-76
2021/08/08 20:30:15;;;;;;;3.80;3.47;;;22.60;98.30;;;;;;5095207;28;20024;-77
2021/08/08 20:32:42;;;;;;;5.18;3.35;;;22.60;98.30;;;;;;5094787;28;20385;-77
2021/08/08 20:35:09;;;;;;;4.88;3.38;;;22.50;98.30;;;;;;5095277;28;20102;-77
2021/08/08 20:37:38;;;;;;;5.43;4.00;;;22.60;98.40;;;;;;5094416;28;20044;-77
2021/08/08 20:40:04;;;;;;;3.65;3.33;;;22.60;98.40;;;;;;5094944;28;20475;-77
2021/08/08 20:42:30;;;;;;;4.43;3.45;;;22.50;98.40;;;;;;5094358;28;20390;-76
2021/08/08 20:44:56;;;;;;;4.55;3.70;;;22.60;98.40;;;;;;5094463;28;20028;-77
2021/08/08 20:47:21;;;;;;;4.50;3.58;;;22.60;98.40;;;;;;5094362;28;20027;-76
2021/08/08 20:49:47;;;;;;;3.65;3.30;;;22.50;98.40;;;;;;5095063;28;20027;-77
2021/08/08 20:52:13;;;;;;;3.85;3.30;;;22.50;98.40;;;;;;5094439;28;20094;-76
2021/08/08 20:54:38;;;;;;;6.28;3.78;;;22.50;98.50;;;;;;5094349;28;20059;-76
2021/08/08 20:57:04;;;;;;;4.43;3.25;;;22.50;98.50;;;;;;5094042;28;20051;-77
2021/08/08 20:59:30;;;;;;;6.22;3.75;;;22.50;98.40;;;;;;5093323;28;20114;-76
2021/08/08 21:01:56;;;;;;;3.53;3.22;;;22.50;98.40;;;;;;5107987;28;20028;-76
2021/08/08 21:04:21;;;;;;;3.75;3.40;;;22.40;98.40;;;;;;5113932;28;20588;-77
2021/08/08 21:06:47;;;;;;;4.13;3.53;;;22.50;98.50;;;;;;5114046;28;20454;-76
2021/08/08 21:09:12;;;;;;;3.92;3.55;;;22.50;98.30;;;;;;5112704;28;20027;-77
2021/08/08 21:11:38;;;;;;;7.10;3.70;;;22.50;98.20;;;;;;5093475;28;20486;-77
2021/08/08 21:14:06;;;;;;;3.88;3.45;;;22.50;98.10;;;;;;5093146;28;20047;-76
2021/08/08 21:16:32;;;;;;;4.35;3.40;;;22.50;98.10;;;;;;5093634;28;20024;-77
2021/08/08 21:18:58;;;;;;;4.20;3.42;;;22.40;98.10;;;;;;5093162;28;20031;-76
2021/08/08 21:21:23;;;;;;;5.43;3.55;;;22.40;98.20;;;;;;5093443;28;20683;-77
2021/08/08 21:23:49;;;;;;;4.53;3.90;;;22.30;98.20;;;;;;5093383;28;20095;-77
2021/08/08 21:26:15;;;;;;;6.47;3.47;;;22.40;98.10;;;;;;5093381;28;20525;-76
2021/08/08 21:28:41;;;;;;;4.88;3.72;;;22.30;98.20;;;;;;5093286;28;20042;-77
2021/08/08 21:31:07;;;;;;;6.63;4.18;;;22.30;98.20;;;;;;5093539;28;20470;-77
2021/08/08 21:33:33;;;;;;;4.78;3.85;;;22.30;98.20;;;;;;5093699;28;20390;-76
2021/08/08 21:35:58;;;;;;;4.80;3.70;;;22.40;97.90;;;;;;5093421;28;20024;-79
2021/08/08 21:38:24;;;;;;;4.75;3.70;;;22.40;97.70;;;;;;5093278;28;20437;-79
2021/08/08 21:40:50;;;;;;;4.30;3.80;;;22.40;97.70;;;;;;5093681;28;20095;-77
2021/08/08 21:43:15;;;;;;;5.38;3.47;;;22.40;97.80;;;;;;5093655;28;20028;-79
2021/08/08 21:45:41;;;;;;;4.45;3.75;;;22.30;98.00;;;;;;5093580;28;20023;-77
2021/08/08 21:48:07;;;;;;;5.47;3.97;;;22.30;98.20;;;;;;5093554;28;20020;-78
2021/08/08 21:50:32;;;;;;;4.75;3.78;;;22.30;98.20;;;;;;5093613;28;20592;-78
2021/08/08 21:52:58;;;;;;;4.22;3.83;;;22.30;98.10;;;;;;5093671;28;20107;-77
2021/08/08 21:55:26;;;;;;;5.70;3.78;;;22.30;98.20;;;;;;5093802;28;20120;-78
2021/08/08 21:57:53;;;;;;;4.55;3.85;;;22.30;98.20;;;;;;5093884;28;20161;-78
2021/08/08 22:00:21;;;;;;;8.57;4.13;;;22.30;98.20;;;;;;5093699;28;20035;-77
2021/08/08 22:02:47;;;;;;;4.32;3.75;;;22.30;98.30;;;;;;5093695;28;20397;-78
2021/08/08 22:05:13;;;;;;;4.05;3.55;;;22.20;98.50;;;;;;5093713;28;20020;-77
2021/08/08 22:07:38;;;;;;;5.05;3.95;;;22.10;98.60;;;;;;5093819;28;20047;-78
2021/08/08 22:10:06;;;;;;;4.70;4.05;;;22.20;98.70;;;;;;5093744;28;20056;-77
2021/08/08 22:12:32;;;;;;;4.50;3.55;;;22.20;98.80;;;;;;5093873;28;20106;-77
2021/08/08 22:14:58;;;;;;;3.85;3.45;;;22.10;98.90;;;;;;5092682;28;20055;-78
2021/08/08 22:17:27;;;;;;;4.50;3.38;;;22.10;99.00;;;;;;5093966;28;20099;-77
2021/08/08 22:19:54;;;;;;;4.18;3.78;;;22.10;99.10;;;;;;5093563;28;20024;-78
2021/08/08 22:22:19;;;;;;;4.55;4.05;;;22.10;99.20;;;;;;5093753;28;20123;-78
2021/08/08 22:24:45;;;;;;;5.70;4.20;;;22.10;99.20;;;;;;5094221;28;20099;-78
2021/08/08 22:27:11;;;;;;;5.20;3.70;;;22.10;99.30;;;;;;5097154;28;20020;-78
2021/08/08 22:29:37;;;;;;;4.57;3.95;;;22.10;99.30;;;;;;5097307;28;20055;-78
2021/08/08 22:32:03;;;;;;;3.88;3.30;;;22.10;99.30;;;;;;5097284;28;20046;-78
2021/08/08 22:34:29;;;;;;;4.10;3.60;;;22.10;99.30;;;;;;5097059;28;20020;-77
2021/08/08 22:36:55;;;;;;;6.60;3.95;;;22.10;99.30;;;;;;5097234;28;20035;-78
2021/08/08 22:39:20;;;;;;;4.53;4.03;;;22.10;99.30;;;;;;5095656;28;20052;-77
2021/08/08 22:41:46;;;;;;;4.32;3.88;;;22.00;99.20;;;;;;5097357;28;20024;-77
2021/08/08 22:44:12;;;;;;;4.57;3.80;;;22.00;99.30;;;;;;5096936;28;20048;-77
2021/08/08 22:46:37;;;;;;;4.13;3.72;;;21.90;99.20;;;;;;5097011;28;20020;-77
2021/08/08 22:49:03;;;;;;;6.00;4.10;;;21.80;99.30;;;;;;5097310;28;20016;-77
2021/08/08 22:51:29;;;;;;;4.22;3.83;;;21.80;99.20;;;;;;5096639;28;20458;-78
2021/08/08 22:53:54;;;;;;;6.15;4.20;;;21.80;99.20;;;;;;5096981;28;20049;-78
2021/08/08 22:56:20;;;;;;;4.70;4.05;;;21.70;99.20;;;;;;5097074;28;20097;-77
2021/08/08 22:58:45;;;;;;;4.78;3.50;;;21.70;99.10;;;;;;5097034;28;20036;-77
2021/08/08 23:01:12;;;;;;;4.80;3.88;;;21.70;99.10;;;;;;5096858;28;20024;-77
2021/08/08 23:03:37;;;;;;;4.00;3.60;;;21.60;99.10;;;;;;5096763;28;20070;-77
2021/08/08 23:06:03;;;;;;;5.05;4.25;;;21.60;99.10;;;;;;5096912;28;20467;-77
2021/08/08 23:08:29;;;;;;;4.30;3.90;;;21.70;99.00;;;;;;5096699;28;20024;-78
2021/08/08 23:10:57;;;;;;;4.50;3.85;;;21.70;99.00;;;;;;5096505;28;20024;-77
2021/08/08 23:13:23;;;;;;;4.25;3.80;;;21.70;98.90;;;;;;5096109;28;20028;-75
2021/08/08 23:15:49;;;;;;;7.80;3.92;;;21.70;98.80;;;;;;5096286;28;20455;-77
2021/08/08 23:18:14;;;;;;;4.10;3.70;;;21.70;98.80;;;;;;5096325;28;20371;-77
2021/08/08 23:20:40;;;;;;;4.57;4.07;;;21.70;98.80;;;;;;5096438;28;20020;-77
2021/08/08 23:23:05;;;;;;;6.93;3.95;;;21.70;98.70;;;;;;5096428;28;20085;-77
2021/08/08 23:25:35;;;;;;;4.30;3.33;;;21.70;98.80;;;;;;5096197;28;20028;-77
2021/08/08 23:28:02;;;;;;;4.53;4.00;;;21.70;98.60;;;;;;5095898;28;20031;-77
2021/08/08 23:30:28;;;;;;;4.43;3.47;;;21.70;98.60;;;;;;5095938;28;20024;-77
2021/08/08 23:32:53;;;;;;;4.05;3.60;;;21.60;98.70;;;;;;5096463;28;20324;-78
2021/08/08 23:35:19;;;;;;;4.55;3.63;;;21.60;98.70;;;;;;5096084;28;20094;-77
2021/08/08 23:37:45;;;;;;;5.80;3.53;;;21.60;98.70;;;;;;5095850;28;20051;-78
2021/08/08 23:40:11;;;;;;;6.50;3.75;;;21.60;98.80;;;;;;5096157;28;20023;-77
2021/08/08 23:42:36;;;;;;;4.72;3.97;;;21.60;99.00;;;;;;5096258;28;20020;-78
2021/08/08 23:45:03;;;;;;;4.45;4.05;;;21.60;98.70;;;;;;5095622;28;20111;-74
2021/08/08 23:47:28;;;;;;;4.40;3.78;;;21.60;98.80;;;;;;5096387;28;20024;-77
2021/08/08 23:49:54;;;;;;;5.88;4.20;;;21.60;98.80;;;;;;5095728;28;20425;-77
2021/08/08 23:52:19;;;;;;;6.13;3.75;;;21.50;98.80;;;;;;5096026;28;20089;-78
2021/08/08 23:54:45;;;;;;;6.95;3.90;;;21.50;98.90;;;;;;5095706;28;20043;-77
2021/08/08 23:57:11;;;;;;;4.75;4.10;;;21.50;99.00;;;;;;5095507;28;20471;-77
2021/08/08 23:59:36;;;;;;;4.13;3.70;;;21.50;99.10;;;;;;5095880;28;20107;-78
